Time;durP1;ratioP1;P1;durP2;ratioP2;P2;SDS_P1;SDS_P2;PMS_P1;PMS_P2;Temp;Humidity;BMP_temperature;BMP_pressure;BME280_temperature;BME280_humidity;BME280_pressure;Samples;Min_cycle;Max_cycle;Signal;HPM_P1;HPM_P2
2023/07/15 00:00:42;;;;;;;;;2.00;1.00;;;;;25.84;57.00;99877.19;5017033;28;45173;-75
2023/07/15 00:03:09;;;;;;;;;3.00;2.00;;;;;25.82;57.62;99879.94;5015353;28;46356;-76
2023/07/15 00:05:35;;;;;;;;;1.67;1.67;;;;;25.75;57.89;99873.13;5016591;28;45469;-75
2023/07/15 00:08:06;;;;;;;;;2.67;2.67;;;;;25.68;57.85;99869.84;5016859;28;45485;-75
2023/07/15 00:10:34;;;;;;;;;2.00;2.00;;;;;25.69;57.61;99862.69;5015518;28;45491;-75
2023/07/15 00:13:00;;;;;;;;;1.00;1.00;;;;;25.60;58.00;99847.91;5016457;28;45992;-75
2023/07/15 00:15:26;;;;;;;;;1.00;1.00;;;;;25.57;58.11;99845.38;5016709;28;45491;-76
2023/07/15 00:17:52;;;;;;;;;3.33;2.67;;;;;25.50;58.58;99844.75;5016471;28;45504;-75
2023/07/15 00:20:19;;;;;;;;;2.00;1.67;;;;;25.43;58.62;99832.59;5015252;28;45522;-76
2023/07/15 00:22:45;;;;;;;;;1.33;1.33;;;;;25.38;58.82;99831.91;5015102;28;47832;-75
2023/07/15 00:25:22;;;;;;;;;2.00;1.00;;;;;25.48;58.64;99841.28;5017409;28;45533;-75
2023/07/15 00:27:48;;;;;;;;;3.67;2.00;;;;;25.46;59.29;99836.94;5019917;28;45471;-75
2023/07/15 00:30:17;;;;;;;;;2.00;2.00;;;;;25.36;59.15;99836.47;5018614;28;45583;-75
2023/07/15 00:32:50;;;;;;;;;2.00;2.00;;;;;25.32;58.95;99835.72;5019752;28;46088;-74
2023/07/15 00:35:18;;;;;;;;;1.00;1.00;;;;;25.33;58.70;99831.25;5018350;28;45415;-75
2023/07/15 00:37:44;;;;;;;;;1.00;1.00;;;;;25.28;59.34;99827.91;5019803;28;45322;-75
2023/07/15 00:40:10;;;;;;;;;2.33;2.00;;;;;25.23;58.95;99821.84;5020002;28;45359;-75
2023/07/15 00:43:00;;;;;;;;;3.67;3.00;;;;;25.17;59.81;99839.03;5019560;28;46092;-75
2023/07/15 00:45:25;;;;;;;;;3.00;1.00;;;;;25.00;60.18;99831.69;5019683;28;45479;-75
2023/07/15 00:48:28;;;;;;;;;2.00;1.00;;;;;24.97;59.63;99830.00;5019624;28;45363;-75
2023/07/15 00:50:54;;;;;;;;;1.00;0.67;;;;;24.99;59.19;99830.81;5014925;28;45311;-75
2023/07/15 00:53:19;;;;;;;;;2.00;1.33;;;;;24.99;60.00;99827.28;5019297;28;46088;-75
2023/07/15 00:55:45;;;;;;;;;1.00;1.00;;;;;24.89;61.10;99820.56;5019505;28;45395;-74
2023/07/15 00:58:10;;;;;;;;;2.00;2.00;;;;;24.91;60.53;99824.94;5019202;28;45232;-74
2023/07/15 01:00:36;;;;;;;;;2.00;2.00;;;;;24.94;59.73;99814.09;5019602;28;45388;-75
2023/07/15 01:03:03;;;;;;;;;1.33;1.33;;;;;24.93;60.13;99816.81;5019293;28;46203;-73
2023/07/15 01:05:28;;;;;;;;;2.00;2.00;;;;;24.89;60.13;99816.09;5017964;28;45375;-74
2023/07/15 01:07:54;;;;;;;;;3.00;1.00;;;;;24.84;59.99;99822.56;5019372;28;45399;-75
2023/07/15 01:10:19;;;;;;;;;2.00;2.00;;;;;24.78;60.89;99816.53;5018250;28;45467;-75
2023/07/15 01:12:45;;;;;;;;;1.00;1.00;;;;;24.81;60.59;99823.56;5019093;28;45447;-74
2023/07/15 01:15:10;;;;;;;;;2.00;2.00;;;;;24.71;60.75;99808.81;5019318;28;45430;-75
2023/07/15 01:17:38;;;;;;;;;1.00;1.00;;;;;24.75;60.70;99814.00;5017867;28;45313;-75
2023/07/15 01:20:06;;;;;;;;;2.00;2.00;;;;;24.74;61.09;99811.38;5019128;28;45629;-73
2023/07/15 01:22:35;;;;;;;;;2.67;2.00;;;;;24.71;60.71;99811.47;5017827;28;45661;-75
2023/07/15 01:25:00;;;;;;;;;2.00;2.00;;;;;24.83;60.26;99816.34;5017915;28;45417;-75
2023/07/15 01:27:26;;;;;;;;;1.00;1.00;;;;;24.86;60.15;99810.00;5018943;28;45399;-75
2023/07/15 01:29:52;;;;;;;;;3.00;2.33;;;;;24.80;60.05;99803.09;5019303;28;45446;-75
2023/07/15 01:32:17;;;;;;;;;2.00;2.00;;;;;24.65;61.09;99790.38;5018688;28;45505;-75
2023/07/15 01:34:43;;;;;;;;;3.00;2.33;;;;;24.57;61.69;99798.69;5018560;28;45447;-75
2023/07/15 01:37:08;;;;;;;;;2.00;2.00;;;;;24.43;62.62;99796.53;5018889;28;45522;-75
2023/07/15 01:39:34;;;;;;;;;4.33;3.00;;;;;24.35;62.19;99777.28;5019097;28;45692;-74
2023/07/15 01:42:00;;;;;;;;;1.00;1.00;;;;;24.46;61.96;99782.19;5019010;28;46080;-75
2023/07/15 01:44:26;;;;;;;;;1.00;1.00;;;;;24.54;61.45;99785.47;5017296;28;45387;-75
2023/07/15 01:46:51;;;;;;;;;1.00;1.00;;;;;24.45;60.81;99767.97;5018898;28;45392;-75
2023/07/15 01:49:17;;;;;;;;;2.00;2.00;;;;;24.57;60.91;99788.00;5018590;28;45321;-75
2023/07/15 01:51:42;;;;;;;;;2.00;2.00;;;;;24.44;61.15;99776.06;5017957;28;45516;-75
2023/07/15 01:54:11;;;;;;;;;2.00;2.00;;;;;24.44;61.05;99784.94;5018493;28;45367;-75
2023/07/15 01:56:36;;;;;;;;;2.33;1.67;;;;;24.34;61.60;99780.88;5013612;28;45525;-74
2023/07/15 01:59:02;;;;;;;;;1.00;1.00;;;;;24.29;61.37;99777.50;4997802;28;45452;-75
2023/07/15 02:01:27;;;;;;;;;2.00;2.00;;;;;24.28;60.80;99771.31;4998572;28;46141;-74
2023/07/15 02:03:53;;;;;;;;;1.67;1.67;;;;;24.31;61.14;99765.88;4998329;28;45385;-75
2023/07/15 02:06:18;;;;;;;;;2.33;2.00;;;;;24.28;61.27;99759.78;4998454;28;45208;-74
2023/07/15 02:08:44;;;;;;;;;1.33;1.00;;;;;24.28;61.42;99763.31;4998473;28;45494;-74
2023/07/15 02:11:10;;;;;;;;;2.00;2.00;;;;;24.21;61.30;99744.00;4998236;28;45494;-74
2023/07/15 02:13:36;;;;;;;;;2.00;2.00;;;;;24.23;61.62;99757.25;4997727;28;45653;-73
2023/07/15 02:16:01;;;;;;;;;2.00;2.00;;;;;24.25;61.49;99765.22;5013715;28;45374;-76
2023/07/15 02:18:27;;;;;;;;;2.00;1.00;;;;;24.20;62.07;99774.28;4998186;28;45483;-75
2023/07/15 02:20:53;;;;;;;;;2.33;2.00;;;;;24.22;61.92;99771.56;4997967;28;46049;-75
2023/07/15 02:23:18;;;;;;;;;1.00;1.00;;;;;24.21;61.78;99767.13;4998058;28;45910;-76
2023/07/15 02:25:44;;;;;;;;;1.00;1.00;;;;;24.11;61.35;99758.59;4998277;28;45610;-74
2023/07/15 02:28:12;;;;;;;;;1.00;1.00;;;;;24.19;61.45;99772.56;5013549;28;45560;-75
2023/07/15 02:30:38;;;;;;;;;2.00;2.00;;;;;24.15;61.49;99765.59;4996665;28;45440;-75
2023/07/15 02:33:06;;;;;;;;;2.67;2.67;;;;;24.15;62.01;99762.03;4998187;28;45364;-75
2023/07/15 02:35:33;;;;;;;;;3.00;3.00;;;;;24.01;62.76;99770.56;5013425;28;45782;-75
2023/07/15 02:37:58;;;;;;;;;3.00;2.00;;;;;23.96;63.45;99775.22;4998041;28;45329;-75
2023/07/15 02:40:25;;;;;;;;;2.67;2.67;;;;;23.92;63.52;99777.13;5013062;28;47134;-75
2023/07/15 02:42:52;;;;;;;;;2.00;2.00;;;;;23.82;64.06;99767.72;4997851;28;45272;-75
2023/07/15 02:45:19;;;;;;;;;3.00;3.00;;;;;23.82;64.19;99779.25;4997839;28;45334;-74
2023/07/15 02:47:44;;;;;;;;;3.00;2.67;;;;;23.80;64.43;99778.44;4997289;28;45312;-75
2023/07/15 02:50:10;;;;;;;;;3.00;2.33;;;;;23.74;65.37;99786.63;4997606;28;45344;-75
2023/07/15 02:52:38;;;;;;;;;3.00;2.33;;;;;23.70;65.22;99789.47;4997978;28;45408;-75
2023/07/15 02:55:06;;;;;;;;;5.00;3.00;;;;;23.68;64.72;99778.00;4997890;28;45498;-76
2023/07/15 02:57:32;;;;;;;;;3.33;2.00;;;;;23.71;64.94;99777.88;5013172;28;45484;-75
2023/07/15 02:59:59;;;;;;;;;3.00;3.00;;;;;23.78;64.49;99790.97;4997756;28;45570;-76
2023/07/15 03:02:24;;;;;;;;;2.00;2.00;;;;;23.87;63.53;99792.41;4997724;28;45435;-75
2023/07/15 03:04:51;;;;;;;;;2.00;2.00;;;;;23.87;63.26;99771.06;4996144;28;45456;-76
2023/07/15 03:07:17;;;;;;;;;1.67;1.67;;;;;23.97;62.73;99774.28;4997776;28;45458;-75
2023/07/15 03:09:45;;;;;;;;;3.00;2.67;;;;;23.98;64.01;99779.56;4997595;28;45522;-75
2023/07/15 03:12:11;;;;;;;;;3.33;2.67;;;;;23.90;63.88;99781.66;4997562;28;45327;-75
2023/07/15 03:14:36;;;;;;;;;2.33;2.33;;;;;23.87;64.34;99778.22;4997749;28;45510;-75
2023/07/15 03:17:03;;;;;;;;;3.67;2.00;;;;;23.95;63.69;99774.31;4997652;28;45415;-75
2023/07/15 03:19:30;;;;;;;;;2.33;2.00;;;;;23.98;63.48;99774.22;5012375;28;47804;-75
2023/07/15 03:21:58;;;;;;;;;2.00;2.00;;;;;23.95;62.95;99757.47;4997425;28;45399;-75
2023/07/15 03:24:25;;;;;;;;;2.33;2.00;;;;;24.09;63.15;99772.94;4997357;28;45753;-75
2023/07/15 03:26:52;;;;;;;;;3.00;2.00;;;;;24.02;63.05;99749.16;4997509;28;46124;-75
2023/07/15 03:29:19;;;;;;;;;2.00;1.00;;;;;24.08;63.49;99763.22;4995591;28;47643;-75
2023/07/15 03:31:44;;;;;;;;;2.00;2.00;;;;;24.05;63.89;99763.31;4997300;28;45542;-75
2023/07/15 03:34:10;;;;;;;;;2.00;1.00;;;;;23.98;63.74;99768.88;4997593;28;45538;-75
2023/07/15 03:36:35;;;;;;;;;3.00;2.00;;;;;23.95;63.98;99752.97;4997829;28;45543;-75
2023/07/15 03:39:01;;;;;;;;;2.00;2.00;;;;;23.92;64.17;99747.78;4996922;28;46133;-75
2023/07/15 03:41:26;;;;;;;;;3.33;2.67;;;;;24.03;63.52;99774.03;4997110;28;45393;-75
2023/07/15 03:43:52;;;;;;;;;1.00;1.00;;;;;24.01;63.92;99765.22;4997279;28;45497;-75
2023/07/15 03:46:17;;;;;;;;;2.00;2.00;;;;;23.97;64.64;99763.59;4997694;28;45426;-76
2023/07/15 03:48:43;;;;;;;;;2.33;2.33;;;;;23.80;65.28;99764.25;4996947;28;45419;-75
2023/07/15 03:51:09;;;;;;;;;3.00;2.33;;;;;23.60;65.20;99767.63;4997313;28;45507;-74
2023/07/15 03:53:35;;;;;;;;;1.33;1.33;;;;;23.61;65.44;99770.19;4997113;28;45371;-75
2023/07/15 03:56:01;;;;;;;;;2.00;2.00;;;;;23.63;65.23;99764.81;4997266;28;45499;-75
2023/07/15 03:58:26;;;;;;;;;1.67;1.67;;;;;23.59;65.39;99768.53;4996589;28;45420;-75
2023/07/15 04:00:52;;;;;;;;;1.33;1.33;;;;;23.48;64.69;99758.25;5014496;28;45807;-75
2023/07/15 04:03:18;;;;;;;;;2.00;2.00;;;;;23.44;66.10;99767.28;5000527;28;45329;-75
2023/07/15 04:05:44;;;;;;;;;3.00;2.00;;;;;23.36;65.85;99764.03;5000660;28;45252;-75
2023/07/15 04:08:10;;;;;;;;;2.00;2.00;;;;;23.39;65.37;99759.44;5000400;28;45976;-75
2023/07/15 04:10:36;;;;;;;;;0.33;0.33;;;;;23.47;65.25;99760.97;5000230;28;45506;-75
2023/07/15 04:13:01;;;;;;;;;1.67;1.67;;;;;23.35;66.27;99747.16;5015653;28;45421;-75
2023/07/15 04:15:29;;;;;;;;;2.00;2.00;;;;;23.19;65.92;99727.31;5000559;28;45383;-75
2023/07/15 04:17:54;;;;;;;;;2.00;2.00;;;;;23.21;65.96;99749.44;5000104;28;46114;-75
2023/07/15 04:20:20;;;;;;;;;2.00;2.00;;;;;23.25;66.02;99739.53;5000070;28;45470;-75
2023/07/15 04:22:49;;;;;;;;;1.00;1.00;;;;;23.26;65.66;99725.28;5000338;28;45199;-75
2023/07/15 04:25:15;;;;;;;;;2.00;2.00;;;;;23.36;65.33;99738.25;5015521;28;45519;-75
2023/07/15 04:27:42;;;;;;;;;2.67;2.00;;;;;23.36;64.72;99740.91;5000189;28;45478;-75
2023/07/15 04:30:11;;;;;;;;;2.00;2.00;;;;;23.34;65.22;99744.56;4999821;28;45343;-75
2023/07/15 04:32:37;;;;;;;;;1.33;1.33;;;;;23.26;64.55;99738.59;5000104;28;45519;-75
2023/07/15 04:35:03;;;;;;;;;2.00;2.00;;;;;23.24;65.46;99744.00;5000124;28;45234;-75
2023/07/15 04:37:30;;;;;;;;;2.00;1.67;;;;;23.17;65.21;99755.78;4999729;28;46138;-74
2023/07/15 04:39:55;;;;;;;;;3.00;2.67;;;;;23.06;65.75;99757.94;4999902;28;45324;-75
2023/07/15 04:42:20;;;;;;;;;3.00;3.00;;;;;22.95;66.25;99755.63;4999917;28;45398;-74
2023/07/15 04:44:46;;;;;;;;;2.33;2.00;;;;;22.90;66.33;99749.56;5000051;28;45353;-75
2023/07/15 04:47:12;;;;;;;;;2.00;2.00;;;;;22.89;66.02;99751.38;5015333;28;47761;-75
2023/07/15 04:49:38;;;;;;;;;1.00;1.00;;;;;22.98;66.33;99756.41;4999821;28;45490;-75
2023/07/15 04:52:03;;;;;;;;;2.00;2.00;;;;;23.05;65.76;99753.56;4999784;28;45376;-73
2023/07/15 04:54:29;;;;;;;;;2.00;2.00;;;;;23.01;66.21;99752.75;4999895;28;45482;-73
2023/07/15 04:56:55;;;;;;;;;3.00;2.00;;;;;23.12;66.17;99749.75;4999376;28;46468;-74
2023/07/15 04:59:20;;;;;;;;;2.00;1.33;;;;;23.22;65.20;99756.53;4999545;28;45363;-75
2023/07/15 05:01:46;;;;;;;;;2.00;2.00;;;;;23.20;65.35;99740.56;4999482;28;45388;-74
2023/07/15 05:04:12;;;;;;;;;2.33;2.00;;;;;23.07;65.47;99749.03;5000118;28;45510;-75
2023/07/15 05:06:37;;;;;;;;;2.00;2.00;;;;;23.09;65.91;99753.38;4999589;28;46242;-75
2023/07/15 05:09:07;;;;;;;;;3.00;3.00;;;;;23.18;65.51;99752.22;4999336;28;45438;-75
2023/07/15 05:11:32;;;;;;;;;3.00;3.00;;;;;23.24;65.41;99765.31;4999197;28;45407;-75
2023/07/15 05:13:58;;;;;;;;;3.00;3.00;;;;;23.32;65.41;99763.25;4999629;28;45455;-73
2023/07/15 05:16:24;;;;;;;;;2.00;1.00;;;;;23.32;64.87;99754.41;5014517;28;46451;-75
2023/07/15 05:18:49;;;;;;;;;3.00;3.00;;;;;23.38;64.68;99772.84;5014575;28;45578;-74
2023/07/15 05:21:16;;;;;;;;;3.00;2.00;;;;;23.48;64.34;99768.91;5014970;28;45357;-75
2023/07/15 05:23:42;;;;;;;;;1.00;1.00;;;;;23.51;64.21;99774.13;4998616;28;45511;-75
2023/07/15 05:26:07;;;;;;;;;3.00;2.00;;;;;23.61;63.97;99778.19;4999078;28;45530;-75
2023/07/15 05:28:33;;;;;;;;;2.67;2.33;;;;;23.68;63.74;99778.88;4999111;28;45383;-75
2023/07/15 05:31:02;;;;;;;;;2.00;1.33;;;;;23.61;63.44;99769.34;5014478;28;45273;-75
2023/07/15 05:33:29;;;;;;;;;2.67;2.33;;;;;23.73;63.42;99781.34;4999362;28;45329;-75
2023/07/15 05:35:54;;;;;;;;;2.00;2.00;;;;;23.79;63.30;99775.81;4998812;28;46210;-75
2023/07/15 05:38:24;;;;;;;;;2.00;2.00;;;;;23.82;63.05;99789.06;4998848;28;45459;-75
2023/07/15 05:40:50;;;;;;;;;2.00;2.00;;;;;23.85;63.08;99791.59;4998857;28;45507;-75
2023/07/15 05:43:16;;;;;;;;;2.00;1.67;;;;;23.84;62.62;99776.53;4999247;28;45531;-75
2023/07/15 05:45:41;;;;;;;;;2.67;2.67;;;;;23.99;62.53;99791.09;5013914;28;45543;-75
2023/07/15 05:48:07;;;;;;;;;1.00;1.00;;;;;23.97;62.58;99772.50;4998891;28;45522;-75
2023/07/15 05:50:36;;;;;;;;;3.67;3.00;;;;;24.13;62.32;99803.91;4998783;28;45515;-75
2023/07/15 05:53:03;;;;;;;;;2.33;2.00;;;;;24.16;61.85;99787.81;4998851;28;45439;-75
2023/07/15 05:55:28;;;;;;;;;2.33;2.00;;;;;24.29;61.85;99802.44;4998174;28;45517;-74
2023/07/15 05:57:54;;;;;;;;;2.33;2.33;;;;;24.34;61.97;99800.44;4998245;28;45313;-75
2023/07/15 06:00:19;;;;;;;;;3.00;2.00;;;;;24.48;62.05;99796.38;4998754;28;45517;-75
2023/07/15 06:02:45;;;;;;;;;3.00;3.00;;;;;24.58;61.80;99797.75;4999290;28;45310;-75
2023/07/15 06:05:10;;;;;;;;;3.00;2.67;;;;;24.74;61.02;99798.03;4998409;28;45958;-75
2023/07/15 06:07:36;;;;;;;;;4.00;3.00;;;;;24.88;60.60;99803.66;4998496;28;45459;-75
2023/07/15 06:10:02;;;;;;;;;2.00;1.00;;;;;25.22;59.70;99807.63;4998686;28;45430;-75
2023/07/15 06:12:28;;;;;;;;;3.00;3.00;;;;;27.71;54.82;99792.34;4998769;28;45371;-75
2023/07/15 06:14:54;;;;;;;;;3.00;3.00;;;;;30.28;48.65;99793.59;4998254;28;46104;-75
2023/07/15 06:17:21;;;;;;;;;2.33;2.00;;;;;32.14;45.03;99808.13;4998609;28;45443;-74
2023/07/15 06:19:46;;;;;;;;;2.33;2.33;;;;;33.62;41.39;99802.59;4998808;28;45551;-75
2023/07/15 06:22:12;;;;;;;;;2.00;2.00;;;;;34.89;39.07;99804.19;4997819;28;45482;-75
2023/07/15 06:24:37;;;;;;;;;2.33;2.33;;;;;35.94;37.14;99812.47;4998059;28;45513;-75
2023/07/15 06:27:03;;;;;;;;;2.00;2.00;;;;;36.81;36.40;99807.38;4998357;28;45268;-75
2023/07/15 06:29:29;;;;;;;;;3.67;3.00;;;;;37.34;34.45;99814.28;4998216;28;45274;-75
2023/07/15 06:31:54;;;;;;;;;2.33;1.67;;;;;36.58;35.91;99814.88;5006775;28;45257;-75
2023/07/15 06:34:20;;;;;;;;;2.67;2.67;;;;;37.22;34.77;99820.88;5007255;28;46097;-74
2023/07/15 06:36:46;;;;;;;;;2.67;2.67;;;;;38.32;33.67;99816.78;5008463;28;45407;-74
2023/07/15 06:39:11;;;;;;;;;1.00;1.00;;;;;39.64;33.24;99827.28;5006164;28;45481;-74
2023/07/15 06:41:37;;;;;;;;;1.00;1.00;;;;;40.22;30.47;99828.50;5014007;28;45352;-75
2023/07/15 06:44:03;;;;;;;;;1.00;1.00;;;;;40.04;31.15;99818.50;5023927;28;45377;-76
2023/07/15 06:46:28;;;;;;;;;0.33;0.33;;;;;39.98;31.23;99821.88;5017071;28;45364;-75
2023/07/15 06:48:55;;;;;;;;;0.33;0.33;;;;;41.14;29.28;99819.41;5017037;28;45541;-75
2023/07/15 06:51:22;;;;;;;;;1.00;1.00;;;;;41.37;29.12;99824.25;5003424;28;45510;-75
2023/07/15 06:53:47;;;;;;;;;0.00;0.00;;;;;42.23;27.25;99832.91;4996435;28;47051;-76
2023/07/15 06:56:13;;;;;;;;;1.00;1.00;;;;;43.16;27.58;99836.72;4997481;28;45459;-75
2023/07/15 06:58:39;;;;;;;;;1.33;1.33;;;;;43.89;24.20;99838.88;4997696;28;45242;-74
2023/07/15 07:01:04;;;;;;;;;1.33;1.00;;;;;44.21;25.37;99845.09;5008761;28;45305;-76
2023/07/15 07:03:34;;;;;;;;;1.00;1.00;;;;;45.03;23.60;99845.94;5015884;28;47725;-77
2023/07/15 07:06:01;;;;;;;;;1.00;1.00;;;;;45.08;24.65;99859.97;5014782;28;45720;-78
2023/07/15 07:08:29;;;;;;;;;1.33;1.33;;;;;45.29;23.25;99834.34;5013225;28;45495;-77
2023/07/15 07:10:55;;;;;;;;;1.67;1.67;;;;;45.62;23.03;99848.41;5016082;28;45320;-75
2023/07/15 07:13:21;;;;;;;;;2.00;1.33;;;;;46.24;23.27;99840.38;5016942;28;45516;-76
2023/07/15 07:15:48;;;;;;;;;1.00;1.00;;;;;46.35;22.71;99863.81;5016606;28;45477;-76
2023/07/15 07:18:13;;;;;;;;;0.00;0.00;;;;;45.13;24.66;99849.22;5016672;28;45484;-77
2023/07/15 07:20:39;;;;;;;;;1.67;1.00;;;;;44.98;24.10;99841.00;5014217;28;45301;-78
2023/07/15 07:23:05;;;;;;;;;1.00;1.00;;;;;43.92;25.40;99853.31;5006123;28;45370;-77
2023/07/15 07:25:30;;;;;;;;;0.33;0.33;;;;;-146.25;100.00;57879.81;5004849;28;45415;-80
2023/07/15 07:27:56;;;;;;;;;1.67;1.00;;;;;-146.25;100.00;57879.81;5006867;28;45456;-80
2023/07/15 07:30:21;;;;;;;;;0.00;0.00;;;;;-146.25;100.00;57879.81;5005673;28;45491;-78
2023/07/15 07:32:48;;;;;;;;;2.00;2.00;;;;;-146.25;100.00;57879.81;4996924;28;45502;-77
2023/07/15 07:35:14;;;;;;;;;0.00;0.00;;;;;-146.25;100.00;57879.81;5001756;28;45577;-75
2023/07/15 07:37:40;;;;;;;;;0.67;0.67;;;;;-146.25;100.00;57879.81;5005452;28;45632;-76
2023/07/15 07:40:09;;;;;;;;;2.00;2.00;;;;;-146.25;100.00;57879.81;5005541;28;45385;-78
2023/07/15 07:42:35;;;;;;;;;2.00;2.00;;;;;-146.25;100.00;57879.81;5011775;28;47694;-76
2023/07/15 07:45:01;;;;;;;;;7.00;7.00;;;;;-146.25;100.00;57879.81;5015787;28;45524;-78
2023/07/15 07:47:26;;;;;;;;;1.50;1.50;;;;;-146.25;100.00;57879.81;5014072;28;45364;-76
2023/07/15 07:49:55;;;;;;;;;1.00;1.00;;;;;-146.25;100.00;57879.81;5016159;28;45474;-77
2023/07/15 07:52:22;;;;;;;;;1.67;1.00;;;;;-146.25;100.00;57879.81;5015914;28;46202;-74
2023/07/15 07:54:47;;;;;;;;;2.00;2.00;;;;;-146.25;100.00;57879.81;5014045;28;45740;-80
2023/07/15 07:57:14;;;;;;;;;1.33;1.33;;;;;-146.25;100.00;57879.81;5015681;28;45498;-74
2023/07/15 07:59:39;;;;;;;;;1.33;1.33;;;;;-146.25;100.00;57879.81;5015843;28;45423;-74
2023/07/15 08:02:05;;;;;;;;;1.00;1.00;;;;;-146.25;100.00;57879.81;5015294;28;45516;-74
2023/07/15 08:04:31;;;;;;;;;1.00;1.00;;;;;-146.25;100.00;57879.81;5015601;28;45325;-74
2023/07/15 08:06:56;;;;;;;;;1.00;1.00;;;;;-146.25;100.00;57879.81;5015796;28;45254;-74
2023/07/15 08:09:22;;;;;;;;;1.33;1.33;;;;;-146.25;100.00;57879.81;5016516;28;45530;-75
2023/07/15 08:11:47;;;;;;;;;3.00;1.00;;;;;-146.25;100.00;57879.81;5015985;28;46175;-74
2023/07/15 08:14:13;;;;;;;;;1.67;0.67;;;;;-146.25;100.00;57879.81;5015641;28;45292;-79
2023/07/15 08:16:39;;;;;;;;;0.67;0.00;;;;;-146.25;100.00;57879.81;5013800;28;45359;-78
2023/07/15 08:19:06;;;;;;;;;1.00;1.00;;;;;-146.25;100.00;57879.81;5013807;28;45681;-76
2023/07/15 08:21:32;;;;;;;;;1.67;1.67;;;;;-146.25;100.00;57879.81;5012920;28;45442;-73
2023/07/15 08:23:58;;;;;;;;;2.00;2.00;;;;;-146.25;100.00;57879.81;5013239;28;45532;-77
2023/07/15 08:26:24;;;;;;;;;1.00;1.00;;;;;-146.25;100.00;57879.81;5015257;28;45383;-77
2023/07/15 08:28:51;;;;;;;;;2.00;2.00;;;;;-146.25;100.00;57879.81;5011916;28;45789;-74
2023/07/15 08:31:16;;;;;;;;;2.00;1.67;;;;;-146.25;100.00;57879.81;5011864;28;45425;-76
2023/07/15 08:33:43;;;;;;;;;1.67;1.67;;;;;-146.25;100.00;57879.81;5007755;28;45447;-76
2023/07/15 08:36:08;;;;;;;;;1.33;1.33;;;;;-146.25;100.00;57879.81;5015059;28;45348;-77
2023/07/15 08:38:34;;;;;;;;;0.67;0.67;;;;;-146.25;100.00;57879.81;5020280;28;45336;-78
2023/07/15 08:41:02;;;;;;;;;2.67;2.00;;;;;-146.25;100.00;57879.81;5011215;28;45518;-77
2023/07/15 08:43:30;;;;;;;;;2.00;2.00;;;;;-146.25;100.00;57879.81;5014393;28;45495;-77
2023/07/15 08:46:07;;;;;;;;;1.33;0.67;;;;;-146.25;100.00;57879.81;5015389;28;45489;-75
2023/07/15 08:48:32;;;;;;;;;5.33;2.67;;;;;-146.25;100.00;57879.81;5016825;28;45308;-77
2023/07/15 08:51:01;;;;;;;;;2.00;2.00;;;;;-146.25;100.00;57879.81;5017832;28;45403;-71
2023/07/15 08:53:28;;;;;;;;;2.00;2.00;;;;;-146.25;100.00;57879.81;5017190;28;45506;-72
2023/07/15 08:55:56;;;;;;;;;1.00;0.00;;;;;-146.25;100.00;57879.81;5018716;28;45463;-73
2023/07/15 08:58:22;;;;;;;;;0.00;0.00;;;;;-146.25;100.00;57879.81;5016972;28;45455;-76
2023/07/15 09:00:50;;;;;;;;;0.00;0.00;;;;;-146.25;100.00;57879.81;5018480;28;45964;-81
2023/07/15 09:03:15;;;;;;;;;0.00;0.00;;;;;-146.25;100.00;57879.81;5019441;28;45367;-82
2023/07/15 09:05:41;;;;;;;;;0.67;0.67;;;;;-146.25;100.00;57879.81;5018245;28;45394;-83
2023/07/15 09:08:12;;;;;;;;;0.00;0.00;;;;;-146.25;100.00;57879.81;5018824;28;45490;-83
2023/07/15 09:10:53;;;;;;;;;0.00;0.00;;;;;-146.25;100.00;57879.81;5018440;28;45610;-82
2023/07/15 09:13:24;;;;;;;;;0.00;0.00;;;;;-146.25;100.00;57879.81;5018710;28;45368;-82
2023/07/15 09:15:50;;;;;;;;;0.00;0.00;;;;;-146.25;100.00;57879.81;5019064;28;45419;-83
2023/07/15 09:18:16;;;;;;;;;1.00;0.00;;;;;-146.25;100.00;57879.81;5018960;28;45372;-82
2023/07/15 09:20:42;;;;;;;;;0.00;0.00;;;;;-146.25;100.00;57879.81;5019010;28;45469;-82
2023/07/15 09:23:08;;;;;;;;;0.00;0.00;;;;;-146.25;100.00;57879.81;5017406;28;45437;-83
2023/07/15 09:25:35;;;;;;;;;1.00;0.67;;;;;-146.25;100.00;57879.81;5019017;28;45897;-82
2023/07/15 09:28:01;;;;;;;;;1.00;0.00;;;;;-146.25;100.00;57879.81;5017439;28;45356;-82
2023/07/15 09:30:27;;;;;;;;;1.00;0.33;;;;;-146.25;100.00;57879.81;5019014;28;45393;-81
2023/07/15 09:32:52;;;;;;;;;0.00;0.00;;;;;-146.25;100.00;57879.81;5018589;28;45512;-83
2023/07/15 09:35:20;;;;;;;;;1.00;1.00;;;;;-146.25;100.00;57879.81;5019188;28;45396;-82
2023/07/15 09:37:49;;;;;;;;;2.00;1.00;;;;;-146.25;100.00;57879.81;5019021;28;45572;-80
2023/07/15 09:40:15;;;;;;;;;2.00;1.00;;;;;-146.25;100.00;57879.81;5017015;28;45690;-81
2023/07/15 09:42:54;;;;;;;;;0.33;0.33;;;;;-146.25;100.00;57879.81;5018346;28;45614;-83
2023/07/15 09:45:36;;;;;;;;;1.00;0.33;;;;;-146.25;100.00;57879.81;5018758;28;45293;-76
2023/07/15 09:48:06;;;;;;;;;2.00;1.00;;;;;-146.25;100.00;57879.81;5019062;28;45412;-76
2023/07/15 09:50:36;;;;;;;;;1.00;1.00;;;;;-146.25;100.00;57879.81;5017853;28;45564;-81
2023/07/15 09:53:02;;;;;;;;;1.00;1.00;;;;;-146.25;100.00;57879.81;5018389;28;45297;-81
2023/07/15 09:55:30;;;;;;;;;1.33;1.33;;;;;-146.25;100.00;57879.81;5018740;28;45301;-82
2023/07/15 09:58:12;;;;;;;;;1.67;0.00;;;;;-146.25;100.00;57879.81;5017040;28;45432;-82
2023/07/15 10:00:42;;;;;;;;;3.00;2.00;;;;;-146.25;100.00;57879.81;5017857;28;46230;-82
2023/07/15 10:03:17;;;;;;;;;2.00;1.00;;;;;-146.25;100.00;57879.81;5017720;28;45542;-81
2023/07/15 10:05:45;;;;;;;;;2.00;2.00;;;;;-146.25;100.00;57879.81;5018145;28;45569;-82
2023/07/15 10:08:12;;;;;;;;;0.00;0.00;;;;;-146.25;100.00;57879.81;5018148;28;45502;-82
2023/07/15 10:10:41;;;;;;;;;2.00;2.00;;;;;-146.25;100.00;57879.81;5020449;28;45344;-82
2023/07/15 10:13:09;;;;;;;;;0.00;0.00;;;;;-146.25;100.00;57879.81;5018170;28;45387;-83
2023/07/15 10:15:38;;;;;;;;;1.00;1.00;;;;;-146.25;100.00;57879.81;5020480;28;45510;-82
2023/07/15 10:18:17;;;;;;;;;0.33;0.33;;;;;-146.25;100.00;57879.81;5018170;28;45490;-82
2023/07/15 10:20:52;;;;;;;;;1.00;1.00;;;;;-146.25;100.00;57879.81;5017752;28;45538;-83
2023/07/15 10:23:24;;;;;;;;;4.33;4.00;;;;;-146.25;100.00;57879.81;5016440;28;45359;-82
2023/07/15 10:26:07;;;;;;;;;4.00;4.00;;;;;-146.25;100.00;57879.81;5017648;28;45319;-82
2023/07/15 10:28:39;;;;;;;;;2.00;2.00;;;;;-146.25;100.00;57879.81;5018350;28;45531;-72
2023/07/15 10:31:09;;;;;;;;;3.00;2.00;;;;;-146.25;100.00;57879.81;5017794;28;45378;-82
2023/07/15 10:33:53;;;;;;;;;2.33;2.00;;;;;-146.25;100.00;57879.81;5016238;28;45370;-81
2023/07/15 10:36:39;;;;;;;;;1.00;1.00;;;;;-146.25;100.00;57879.81;5017542;28;45454;-80
2023/07/15 10:39:17;;;;;;;;;2.00;2.00;;;;;-146.25;100.00;57879.81;5017545;28;45328;-80
2023/07/15 10:41:51;;;;;;;;;2.00;2.00;;;;;-146.25;100.00;57879.81;5018139;28;46289;-82
2023/07/15 10:44:23;;;;;;;;;5.00;5.00;;;;;-146.25;100.00;57879.81;5017393;28;45434;-81
2023/07/15 10:47:00;;;;;;;;;2.67;2.33;;;;;-146.25;100.00;57879.81;5017057;28;45500;-82
2023/07/15 10:49:25;;;;;;;;;3.00;3.00;;;;;-146.25;100.00;57879.81;5019709;28;45540;-82
2023/07/15 10:51:54;;;;;;;;;4.00;2.00;;;;;-146.25;100.00;57879.81;5017873;28;46183;-82
2023/07/15 10:54:22;;;;;;;;;2.33;1.67;;;;;-146.25;100.00;57879.81;5017665;28;45431;-81
2023/07/15 10:56:47;;;;;;;;;2.00;1.33;;;;;-146.25;100.00;57879.81;5017351;28;45476;-82
2023/07/15 10:59:14;;;;;;;;;1.00;1.00;;;;;-146.25;100.00;57879.81;5015868;28;45344;-82
2023/07/15 11:01:39;;;;;;;;;2.00;2.00;;;;;-146.25;100.00;57879.81;5017405;28;46190;-81
2023/07/15 11:04:05;;;;;;;;;1.33;1.00;;;;;-146.25;100.00;57879.81;5018283;28;45474;-73
2023/07/15 11:06:33;;;;;;;;;4.33;2.67;;;;;-146.25;100.00;57879.81;5017530;28;45438;-82
2023/07/15 11:09:16;;;;;;;;;2.33;2.33;;;;;-146.25;100.00;57879.81;5016715;28;45431;-81
2023/07/15 11:11:42;;;;;;;;;3.00;3.00;;;;;-146.25;100.00;57879.81;5016764;28;46171;-81
2023/07/15 11:14:28;;;;;;;;;2.00;2.00;;;;;-146.25;100.00;57879.81;5016801;28;45403;-81
2023/07/15 11:16:58;;;;;;;;;2.00;2.00;;;;;-146.25;100.00;57879.81;5017323;28;45276;-81
2023/07/15 11:19:27;;;;;;;;;2.00;1.33;;;;;-146.25;100.00;57879.81;5017431;28;45399;-81
2023/07/15 11:21:54;;;;;;;;;2.00;1.67;;;;;-146.25;100.00;57879.81;5016844;28;45403;-82
2023/07/15 11:24:24;;;;;;;;;2.00;2.00;;;;;-146.25;100.00;57879.81;5015396;28;45408;-81